Date,TemperatureHighF,TemperatureAvgF,TemperatureLowF,DewpointHighF,DewpointAvgF,DewpointLowF,HumidityHigh,HumidityAvg,HumidityLow,PressureMaxIn,PressureMinIn,WindSpeedMaxMPH,WindSpeedAvgMPH,GustSpeedMaxMPH,PrecipitationSumIn
2013-3-1,54.0,46.6,41.0,39.0,34.6,32.0,85,64,46,29.94,29.85,2,1,8,0.00
2013-3-2,52.0,43.6,35.0,38.0,34.5,32.0,89,72,47,29.92,29.83,4,1,10,0.00
2013-3-3,50.0,40.7,33.0,34.0,30.1,28.0,91,68,44,30.01,29.88,5,1,10,0.00
2013-3-4,56.0,42.5,29.0,37.0,28.2,22.0,89,61,28,30.16,30.01,5,1,10,0.00
2013-3-5,65.0,53.6,40.0,57.0,45.0,37.0,98,75,37,30.11,29.71,7,2,15,0.03
2013-3-6,58.0,48.6,41.0,55.0,33.8,27.0,93,58,37,30.06,29.70,7,3,18,0.03
2013-3-7,62.0,46.1,35.0,41.0,34.3,29.0,93,66,35,30.21,30.06,7,2,12,0.00
2013-3-8,62.0,47.5,38.0,37.0,31.0,25.0,96,57,27,30.27,30.13,7,2,15,0.00
2013-3-9,63.0,47.8,37.0,42.0,36.3,31.0,94,67,37,30.30,30.22,6,2,13,0.00
2013-3-10,65.0,51.3,39.0,47.0,41.3,34.0,99,73,37,30.26,30.19,6,2,15,0.00
2013-3-11,70.0,59.8,47.0,60.0,54.2,46.0,98,83,61,30.19,29.90,7,2,18,0.00
2013-3-12,69.0,63.7,53.0,64.0,59.4,47.0,96,86,65,29.93,29.79,7,2,18,0.06
2013-3-13,68.0,55.2,42.0,48.0,37.2,28.0,94,57,24,30.11,29.92,5,1,16,0.01
2013-3-14,57.0,46.9,37.0,33.0,25.7,20.0,80,45,26,30.29,30.08,8,2,15,0.00
2013-3-15,68.0,50.8,36.0,48.0,37.9,29.0,93,66,30,30.21,30.03,5,1,12,0.00
2013-3-16,79.0,63.3,54.0,53.0,48.7,43.0,81,61,34,30.04,29.86,7,3,14,0.00
2013-3-17,77.0,64.5,57.0,59.0,53.7,51.0,86,69,48,30.02,29.93,5,2,15,0.00
2013-3-18,64.0,61.4,57.0,62.0,57.8,54.0,97,88,72,30.06,29.84,6,2,13,0.03
2013-3-19,77.0,63.2,54.0,61.0,52.2,32.0,99,73,33,29.97,29.80,4,1,10,0.43
2013-3-20,63.0,55.2,43.0,39.0,31.8,21.0,85,43,21,30.08,29.82,8,3,16,0.01
2013-3-21,60.0,46.2,40.0,39.0,30.4,18.0,92,60,20,29.93,29.77,4,1,12,0.00
2013-3-22,53.0,45.0,38.0,42.0,29.3,19.0,79,55,43,30.07,29.92,6,2,13,0.00
2013-3-23,56.0,49.6,43.0,52.0,46.1,40.0,98,88,64,30.03,29.84,8,2,14,0.76
2013-3-24,67.0,55.1,47.0,67.0,54.1,46.0,99,97,93,29.86,29.44,9,3,21,3.10
2013-3-25,58.0,50.3,44.0,47.0,36.8,24.0,98,64,31,29.94,29.57,6,3,18,0.01
2013-3-26,53.0,44.1,34.0,32.0,29.1,27.0,75,56,39,30.16,29.94,4,2,14,0.00
2013-3-27,61.0,46.7,33.0,35.0,31.0,28.0,90,58,30,30.25,30.14,7,1,12,0.00
2013-3-28,63.0,48.8,38.0,37.0,30.7,27.0,93,54,26,30.28,30.16,7,2,13,0.00
2013-3-29,65.0,48.9,38.0,44.0,37.7,34.0,96,71,33,30.30,30.20,7,1,14,0.00
2013-3-30,74.0,56.9,47.0,52.0,48.1,44.0,96,76,38,30.23,30.10,4,1,12,0.00
2013-3-31,74.0,66.2,56.0,60.0,56.6,53.0,90,72,58,30.03,29.88,5,3,12,0.02